createdAt,value
2023-02-11T00:01:21.288Z,79.46
2023-02-11T00:03:49.536Z,79.05
2023-02-11T00:06:17.828Z,78.83
2023-02-11T00:08:46.020Z,79.17
2023-02-11T00:11:16.312Z,79.50
2023-02-11T00:13:47.281Z,79.74
2023-02-11T00:16:18.133Z,79.36
2023-02-11T00:18:47.068Z,79.29
2023-02-11T00:21:16.864Z,79.80
2023-02-11T00:23:46.222Z,79.23
2023-02-11T00:26:15.227Z,79.75
2023-02-11T00:28:43.777Z,79.97
2023-02-11T00:31:15.122Z,79.72
2023-02-11T00:33:43.394Z,79.09
2023-02-11T00:36:15.509Z,79.09
2023-02-11T00:38:44.354Z,79.85
2023-02-11T00:41:13.105Z,79.62
2023-02-11T00:43:41.987Z,79.42
2023-02-11T00:46:10.720Z,79.46
2023-02-11T00:48:40.542Z,79.29
2023-02-11T00:51:08.963Z,79.44
2023-02-11T00:53:37.584Z,79.45
2023-02-11T00:56:06.637Z,79.56
2023-02-11T00:58:34.906Z,79.57
2023-02-11T01:01:03.072Z,79.31
2023-02-11T01:03:31.675Z,79.70
2023-02-11T01:06:01.558Z,79.13
2023-02-11T01:08:29.738Z,79.60
2023-02-11T01:10:58.723Z,79.45
2023-02-11T01:13:28.174Z,79.95
2023-02-11T01:15:56.386Z,80.27
2023-02-11T01:18:24.433Z,79.84
2023-02-11T01:20:54.618Z,79.94
2023-02-11T01:23:26.874Z,79.97
2023-02-11T01:25:55.506Z,80.49
2023-02-11T01:28:26.172Z,80.01
2023-02-11T01:30:55.137Z,80.29
2023-02-11T01:33:24.417Z,80.10
2023-02-11T01:35:53.288Z,80.40
2023-02-11T01:38:24.949Z,80.15
2023-02-11T01:40:54.830Z,79.79
2023-02-11T01:43:24.125Z,79.90
2023-02-11T01:46:05.501Z,79.83
2023-02-11T01:48:37.639Z,79.54
2023-02-11T01:51:10.595Z,79.97
2023-02-11T01:53:57.507Z,80.16
2023-02-11T01:56:45.429Z,79.73
2023-02-11T01:59:19.356Z,79.48
2023-02-11T02:01:52.394Z,79.55
2023-02-11T02:04:21.462Z,80.78
2023-02-11T02:06:54.671Z,80.75
2023-02-11T02:09:29.205Z,81.22
2023-02-11T02:11:57.685Z,80.92
2023-02-11T02:14:26.606Z,81.33
2023-02-11T02:16:54.542Z,80.40
2023-02-11T02:19:50.288Z,80.37
2023-02-11T02:22:46.677Z,80.95
2023-02-11T02:25:36.642Z,81.47
2023-02-11T02:28:21.686Z,81.10
2023-02-11T02:31:15.282Z,81.28
2023-02-11T02:33:51.299Z,81.27
2023-02-11T02:36:24.758Z,81.25
2023-02-11T02:38:58.494Z,81.59
2023-02-11T02:41:30.718Z,81.40
2023-02-11T02:43:58.964Z,80.66
2023-02-11T02:46:30.624Z,81.31
2023-02-11T02:49:01.111Z,81.26
2023-02-11T02:51:58.282Z,81.86
2023-02-11T02:54:51.135Z,81.49
2023-02-11T02:57:33.791Z,81.56
2023-02-11T03:00:14.051Z,81.46
2023-02-11T03:02:53.601Z,81.36
2023-02-11T03:05:32.506Z,81.48
2023-02-11T03:08:08.486Z,81.57
2023-02-11T03:10:40.010Z,81.87
2023-02-11T03:13:08.945Z,80.93
2023-02-11T03:15:45.540Z,81.51
2023-02-11T03:18:17.116Z,81.86
2023-02-11T03:20:50.695Z,82.01
2023-02-11T03:23:23.816Z,80.41
2023-02-11T03:25:57.077Z,80.92
2023-02-11T03:28:32.516Z,80.75
2023-02-11T03:31:11.324Z,80.88
2023-02-11T03:33:44.911Z,81.62
2023-02-11T03:36:19.651Z,81.96
2023-02-11T03:38:51.870Z,81.49
2023-02-11T03:41:24.934Z,81.55
2023-02-11T03:43:55.466Z,81.62
2023-02-11T03:46:27.119Z,81.80
2023-02-11T03:48:57.994Z,82.17
2023-02-11T03:51:30.825Z,82.18
2023-02-11T03:54:02.398Z,81.51
2023-02-11T03:56:34.755Z,80.73
2023-02-11T03:59:02.745Z,81.72
2023-02-11T04:01:30.790Z,81.96
2023-02-11T04:03:59.338Z,81.98
2023-02-11T04:06:28.762Z,82.01
2023-02-11T04:08:56.999Z,82.04
2023-02-11T04:11:25.308Z,82.60
2023-02-11T04:13:53.276Z,82.30
2023-02-11T04:16:21.779Z,82.40
2023-02-11T04:18:49.867Z,82.35
2023-02-11T04:21:17.955Z,82.38
2023-02-11T04:23:47.644Z,82.32
2023-02-11T04:26:15.695Z,82.83
2023-02-11T04:28:43.584Z,82.61
2023-02-11T04:31:13.202Z,82.20
2023-02-11T04:33:41.370Z,82.64
2023-02-11T04:36:09.732Z,82.23
2023-02-11T04:38:38.131Z,82.47
2023-02-11T04:41:07.453Z,82.10
2023-02-11T04:43:35.555Z,82.99
2023-02-11T04:46:03.690Z,82.76
2023-02-11T04:48:31.709Z,82.82
2023-02-11T04:51:00.193Z,82.15
2023-02-11T04:53:28.507Z,82.18
2023-02-11T04:55:56.645Z,82.31
2023-02-11T04:58:26.437Z,81.17
2023-02-11T05:00:54.644Z,81.04
2023-02-11T05:03:22.612Z,81.59
2023-02-11T05:05:51.531Z,81.61
2023-02-11T05:08:21.525Z,81.16
2023-02-11T05:10:49.478Z,81.23
2023-02-11T05:13:17.850Z,80.79
2023-02-11T05:15:47.168Z,80.90
2023-02-11T05:18:15.615Z,80.97
2023-02-11T05:20:43.916Z,80.25
2023-02-11T05:23:11.810Z,79.91
2023-02-11T05:25:40.001Z,79.84
2023-02-11T05:28:08.455Z,80.27
2023-02-11T05:30:36.503Z,80.55
2023-02-11T05:33:06.373Z,79.53
2023-02-11T05:35:34.739Z,80.37
2023-02-11T05:38:02.654Z,79.71
2023-02-11T05:40:30.617Z,80.90
2023-02-11T05:42:59.560Z,80.85
2023-02-11T05:45:27.816Z,80.64
2023-02-11T05:47:56.387Z,80.30
2023-02-11T05:50:26.903Z,79.98
2023-02-11T05:52:55.192Z,80.10
2023-02-11T05:55:23.820Z,79.90
2023-02-11T05:57:52.233Z,79.37
2023-02-11T06:00:20.817Z,79.92
2023-02-11T06:02:49.995Z,79.44
2023-02-11T06:05:18.370Z,79.43
2023-02-11T06:07:47.839Z,79.83
2023-02-11T06:10:16.539Z,79.96
2023-02-11T06:12:44.898Z,79.74
2023-02-11T06:15:13.395Z,80.22
2023-02-11T06:17:41.827Z,81.44
2023-02-11T06:20:11.432Z,82.04
2023-02-11T06:22:39.657Z,81.50
2023-02-11T06:25:11.526Z,81.83
2023-02-11T06:27:40.401Z,81.68
2023-02-11T06:30:09.751Z,81.77
2023-02-11T06:32:46.153Z,81.14
2023-02-11T06:35:15.453Z,82.10
2023-02-11T06:37:44.289Z,82.28
2023-02-11T06:40:14.365Z,80.63
2023-02-11T06:42:42.744Z,81.45
2023-02-11T06:45:12.240Z,82.06
2023-02-11T06:47:41.303Z,82.23
2023-02-11T06:50:12.114Z,82.83
2023-02-11T06:52:40.115Z,82.04
2023-02-11T06:55:08.703Z,82.94
2023-02-11T06:57:38.540Z,83.11
2023-02-11T07:00:07.595Z,82.37
2023-02-11T07:02:36.247Z,83.14
2023-02-11T07:05:04.459Z,82.78
2023-02-11T07:07:34.199Z,82.52
2023-02-11T07:10:03.295Z,82.72
2023-02-11T07:12:31.622Z,82.41
2023-02-11T07:15:00.858Z,81.89
2023-02-11T07:17:28.712Z,82.60
2023-02-11T07:19:57.108Z,82.22
2023-02-11T07:22:25.300Z,81.43
2023-02-11T07:24:53.390Z,80.84
2023-02-11T07:27:21.818Z,80.77
2023-02-11T07:29:50.093Z,80.56
2023-02-11T07:32:19.476Z,80.67
2023-02-11T07:34:48.554Z,80.26
2023-02-11T07:37:16.898Z,80.52
2023-02-11T07:39:44.804Z,79.75
2023-02-11T07:42:13.271Z,80.96
2023-02-11T07:44:41.290Z,80.88
2023-02-11T07:47:09.334Z,80.19
2023-02-11T07:49:39.173Z,80.61
2023-02-11T07:52:07.095Z,80.32
2023-02-11T07:54:35.013Z,79.38
2023-02-11T07:57:03.920Z,79.72
2023-02-11T07:59:31.903Z,80.21
2023-02-11T08:02:00.204Z,78.64
2023-02-11T08:04:28.906Z,78.64
2023-02-11T08:06:59.312Z,78.13
2023-02-11T08:09:27.270Z,78.26
2023-02-11T08:11:55.551Z,77.72
2023-02-11T08:14:25.284Z,77.05
2023-02-11T08:16:53.608Z,77.58
2023-02-11T08:19:22.319Z,76.08
2023-02-11T08:21:51.224Z,76.95
2023-02-11T08:24:21.194Z,75.83
2023-02-11T08:26:49.640Z,76.53
2023-02-11T08:29:18.686Z,75.58
2023-02-11T08:31:49.069Z,75.76
2023-02-11T08:34:19.407Z,75.75
2023-02-11T08:36:48.650Z,75.81
2023-02-11T08:39:20.494Z,75.25
2023-02-11T08:41:51.976Z,75.62
2023-02-11T08:44:21.698Z,75.13
2023-02-11T08:46:50.959Z,74.43
2023-02-11T08:49:19.626Z,74.23
2023-02-11T08:51:48.000Z,73.67
2023-02-11T08:54:16.746Z,73.35
2023-02-11T08:56:46.806Z,72.92
2023-02-11T08:59:18.121Z,72.15
2023-02-11T09:01:47.174Z,72.07
2023-02-11T09:04:15.675Z,72.00
2023-02-11T09:06:44.414Z,72.19
2023-02-11T09:09:14.207Z,71.71
2023-02-11T09:11:43.656Z,71.31
2023-02-11T09:14:20.365Z,70.55
2023-02-11T09:16:49.942Z,70.98
2023-02-11T09:19:19.172Z,69.83
2023-02-11T09:21:47.851Z,69.33
2023-02-11T09:24:16.873Z,69.03
2023-02-11T09:26:45.204Z,68.83
2023-02-11T09:29:13.569Z,68.51
2023-02-11T09:31:43.518Z,68.32
2023-02-11T09:34:12.920Z,67.37
2023-02-11T09:36:42.155Z,66.98
2023-02-11T09:39:13.648Z,66.65
2023-02-11T09:42:04.143Z,66.55
2023-02-11T09:44:34.689Z,66.89
2023-02-11T09:47:06.688Z,66.47
2023-02-11T09:49:41.414Z,66.59
2023-02-11T09:52:20.600Z,66.45
2023-02-11T09:54:56.228Z,66.64
2023-02-11T09:57:29.278Z,66.40
2023-02-11T09:59:58.331Z,66.53
2023-02-11T10:02:38.113Z,65.75
2023-02-11T10:05:22.889Z,65.44
2023-02-11T10:08:02.176Z,66.11
2023-02-11T10:10:43.695Z,65.71
2023-02-11T10:13:32.124Z,65.54
2023-02-11T10:16:09.598Z,65.22
2023-02-11T10:19:19.475Z,64.70
2023-02-11T10:22:00.412Z,64.80
2023-02-11T10:24:29.933Z,63.42
2023-02-11T10:26:57.852Z,63.73
2023-02-11T10:29:37.203Z,63.06
2023-02-11T10:32:12.426Z,64.03
2023-02-11T10:34:42.920Z,63.16
2023-02-11T10:37:13.945Z,62.78
2023-02-11T10:39:42.755Z,62.92
2023-02-11T10:42:13.641Z,62.67
2023-02-11T10:44:48.809Z,62.71
2023-02-11T10:47:22.568Z,61.88
2023-02-11T10:49:52.293Z,63.09
2023-02-11T10:52:23.752Z,62.57
2023-02-11T10:55:00.463Z,62.54
2023-02-11T10:57:32.646Z,63.70
2023-02-11T11:00:03.778Z,62.84
2023-02-11T11:02:34.724Z,62.29
2023-02-11T11:05:08.023Z,62.51
2023-02-11T11:07:37.908Z,63.12
2023-02-11T11:10:26.461Z,63.29
2023-02-11T11:12:54.323Z,62.87
2023-02-11T11:15:24.626Z,61.69
2023-02-11T11:18:21.582Z,62.14
2023-02-11T11:20:59.727Z,62.39
2023-02-11T11:23:29.760Z,61.79
2023-02-11T11:26:07.182Z,61.64
2023-02-11T11:28:41.648Z,63.23
2023-02-11T11:31:15.950Z,62.92
2023-02-11T11:33:45.990Z,62.75
2023-02-11T11:36:21.195Z,63.25
2023-02-11T11:38:54.013Z,62.46
2023-02-11T11:41:26.159Z,63.28
2023-02-11T11:43:59.602Z,63.73
2023-02-11T11:46:31.353Z,63.03
2023-02-11T11:49:19.628Z,63.85
2023-02-11T11:51:56.178Z,62.65
2023-02-11T11:54:29.323Z,62.88
2023-02-11T11:57:01.964Z,62.32
2023-02-11T11:59:30.694Z,61.38
2023-02-11T12:02:19.433Z,60.75
2023-02-11T12:05:04.003Z,59.99
2023-02-11T12:07:47.844Z,60.69
2023-02-11T12:10:39.143Z,61.14
2023-02-11T12:13:21.858Z,61.00
2023-02-11T12:15:59.199Z,62.31
2023-02-11T12:19:00.313Z,63.22
2023-02-11T12:21:43.298Z,64.06
2023-02-11T12:24:29.601Z,64.17
2023-02-11T12:27:04.573Z,64.92
2023-02-11T12:29:43.713Z,64.28
2023-02-11T12:32:27.858Z,64.20
2023-02-11T12:35:17.147Z,65.13
2023-02-11T12:37:58.288Z,65.23
2023-02-11T12:40:38.987Z,64.71
2023-02-11T12:43:19.741Z,63.93
2023-02-11T12:46:02.683Z,64.04
2023-02-11T12:48:42.608Z,64.55
2023-02-11T12:51:24.355Z,64.48
2023-02-11T12:54:19.203Z,65.11
2023-02-11T12:56:53.679Z,65.47
2023-02-11T12:59:34.835Z,64.43
2023-02-11T13:02:10.786Z,64.03
2023-02-11T13:04:42.825Z,64.08
2023-02-11T13:07:16.798Z,63.79
2023-02-11T13:09:50.704Z,63.80
2023-02-11T13:12:38.575Z,63.85
2023-02-11T13:15:12.041Z,63.45
2023-02-11T13:17:49.011Z,63.09
2023-02-11T13:20:27.602Z,63.51
2023-02-11T13:23:03.697Z,62.92
2023-02-11T13:25:39.121Z,62.63
2023-02-11T13:28:21.931Z,62.21
2023-02-11T13:30:58.056Z,62.00
2023-02-11T13:33:34.249Z,62.04
2023-02-11T13:36:16.413Z,62.15
2023-02-11T13:38:57.932Z,61.91
2023-02-11T13:41:31.022Z,60.92
2023-02-11T13:44:03.308Z,60.23
2023-02-11T13:46:51.305Z,60.77
2023-02-11T13:49:22.260Z,60.44
2023-02-11T13:51:51.501Z,61.15
2023-02-11T13:54:27.596Z,61.32
2023-02-11T13:57:32.789Z,60.41
2023-02-11T14:00:06.182Z,60.61
2023-02-11T14:02:54.160Z,60.53
2023-02-11T14:05:45.677Z,59.73
2023-02-11T14:08:49.247Z,60.17
2023-02-11T14:11:48.549Z,60.29
2023-02-11T14:14:36.575Z,59.47
2023-02-11T14:17:35.958Z,59.94
2023-02-11T14:20:25.698Z,59.32
2023-02-11T14:22:55.036Z,59.10
2023-02-11T14:25:25.548Z,58.73
2023-02-11T14:27:59.236Z,57.67
2023-02-11T14:30:36.460Z,55.39
2023-02-11T14:33:38.002Z,55.91
2023-02-11T14:36:17.696Z,56.38
2023-02-11T14:39:00.169Z,56.62
2023-02-11T14:41:31.399Z,57.75
2023-02-11T14:44:04.770Z,57.68
2023-02-11T14:46:34.618Z,57.09
2023-02-11T14:49:06.352Z,57.36
2023-02-11T14:51:37.580Z,58.38
2023-02-11T14:54:15.206Z,58.30
2023-02-11T14:56:44.645Z,58.54
2023-02-11T14:59:19.249Z,59.18
2023-02-11T15:01:50.915Z,59.80
2023-02-11T15:04:28.114Z,59.84
2023-02-11T15:06:59.706Z,59.98
2023-02-11T15:09:35.095Z,59.36
2023-02-11T15:12:03.719Z,60.10
2023-02-11T15:14:33.853Z,59.62
2023-02-11T15:17:06.128Z,60.93
2023-02-11T15:19:37.688Z,60.29
2023-02-11T15:22:11.152Z,60.26
2023-02-11T15:24:40.510Z,60.77
2023-02-11T15:27:15.021Z,61.21
2023-02-11T15:29:47.719Z,62.30
2023-02-11T15:32:22.191Z,62.03
2023-02-11T15:34:53.505Z,62.23
2023-02-11T15:37:23.959Z,63.23
2023-02-11T15:39:54.062Z,62.91
2023-02-11T15:42:24.937Z,62.51
2023-02-11T15:45:13.117Z,63.42
2023-02-11T15:47:43.724Z,64.50
2023-02-11T15:50:24.020Z,64.72
2023-02-11T15:52:53.694Z,64.36
2023-02-11T15:55:22.148Z,64.52
2023-02-11T15:57:55.697Z,65.44
2023-02-11T16:00:26.210Z,65.22
2023-02-11T16:02:54.938Z,65.44
2023-02-11T16:05:36.513Z,65.07
2023-02-11T16:08:21.121Z,66.35
2023-02-11T16:10:58.878Z,66.73
2023-02-11T16:13:30.276Z,66.93
2023-02-11T16:16:01.922Z,66.79
2023-02-11T16:18:39.621Z,66.79
2023-02-11T16:21:17.340Z,67.60
2023-02-11T16:23:52.658Z,67.85
2023-02-11T16:26:28.943Z,68.26
2023-02-11T16:29:09.184Z,68.16
2023-02-11T16:31:39.649Z,69.41
2023-02-11T16:34:14.943Z,69.41
2023-02-11T16:36:45.084Z,69.58
2023-02-11T16:39:14.397Z,69.44
2023-02-11T16:41:42.377Z,69.62
2023-02-11T16:44:10.710Z,69.41
2023-02-11T16:46:39.107Z,69.52
2023-02-11T16:49:18.206Z,70.19
2023-02-11T16:51:49.849Z,70.00
2023-02-11T16:54:19.756Z,70.14
2023-02-11T16:56:47.941Z,70.86
2023-02-11T16:59:16.143Z,71.14
2023-02-11T17:01:45.286Z,70.81
2023-02-11T17:04:18.773Z,71.37
2023-02-11T17:06:49.350Z,71.39
2023-02-11T17:09:20.720Z,71.61
2023-02-11T17:11:49.893Z,71.94
2023-02-11T17:14:18.693Z,71.80
2023-02-11T17:16:49.502Z,71.75
2023-02-11T17:19:21.162Z,71.72
2023-02-11T17:21:51.931Z,72.58
2023-02-11T17:24:21.038Z,73.04
2023-02-11T17:26:50.340Z,73.23
2023-02-11T17:29:21.835Z,73.11
2023-02-11T17:31:51.589Z,72.83
2023-02-11T17:34:20.365Z,73.09
2023-02-11T17:36:49.041Z,73.68
2023-02-11T17:39:19.290Z,74.16
2023-02-11T17:41:47.187Z,74.43
2023-02-11T17:44:16.723Z,73.98
2023-02-11T17:46:45.184Z,73.89
2023-02-11T17:49:13.184Z,74.04
2023-02-11T17:51:42.226Z,73.54
2023-02-11T17:54:13.209Z,73.81
2023-02-11T17:56:43.850Z,73.98
2023-02-11T17:59:13.213Z,73.91
2023-02-11T18:01:42.937Z,73.84
2023-02-11T18:04:15.974Z,74.44
2023-02-11T18:06:44.274Z,73.82
2023-02-11T18:09:12.810Z,74.46
2023-02-11T18:11:42.780Z,75.03
2023-02-11T18:14:11.853Z,75.32
2023-02-11T18:16:43.177Z,75.13
2023-02-11T18:19:12.521Z,74.88
2023-02-11T18:21:40.728Z,74.74
2023-02-11T18:24:08.905Z,75.39
2023-02-11T18:26:44.377Z,75.07
2023-02-11T18:29:13.455Z,75.80
2023-02-11T18:31:41.448Z,75.42
2023-02-11T18:34:10.713Z,75.88
2023-02-11T18:36:39.535Z,75.67
2023-02-11T18:39:07.873Z,75.97
2023-02-11T18:41:38.094Z,76.12
2023-02-11T18:44:07.906Z,75.98
2023-02-11T18:46:35.947Z,75.46
2023-02-11T18:49:04.254Z,75.82
2023-02-11T18:51:32.717Z,75.86
2023-02-11T18:54:01.723Z,75.52
2023-02-11T18:56:29.740Z,75.37
2023-02-11T18:59:01.149Z,76.47
2023-02-11T19:01:33.489Z,76.02
2023-02-11T19:04:04.452Z,76.05
2023-02-11T19:06:35.283Z,76.60
2023-02-11T19:09:07.636Z,76.62
2023-02-11T19:11:55.861Z,76.10
2023-02-11T19:14:26.637Z,77.15
2023-02-11T19:16:57.981Z,76.41
2023-02-11T19:19:28.771Z,76.62
2023-02-11T19:21:58.416Z,76.86
2023-02-11T19:24:29.324Z,76.44
2023-02-11T19:27:00.173Z,76.21
2023-02-11T19:29:28.638Z,77.02
2023-02-11T19:31:59.264Z,76.73
2023-02-11T19:34:27.583Z,77.35
2023-02-11T19:36:56.840Z,76.43
2023-02-11T19:39:25.544Z,76.38
2023-02-11T19:41:53.581Z,76.74
2023-02-11T19:44:21.571Z,77.10
2023-02-11T19:46:53.163Z,77.58
2023-02-11T19:49:25.988Z,77.64
2023-02-11T19:51:55.899Z,77.29
2023-02-11T19:54:23.968Z,77.20
2023-02-11T19:56:51.911Z,77.80
2023-02-11T19:59:21.685Z,76.60
2023-02-11T20:01:50.130Z,76.73
2023-02-11T20:04:18.374Z,76.58
2023-02-11T20:06:49.550Z,77.41
2023-02-11T20:09:17.667Z,77.22
2023-02-11T20:11:45.533Z,76.78
2023-02-11T20:14:15.332Z,77.98
2023-02-11T20:16:49.236Z,78.49
2023-02-11T20:19:20.679Z,78.31
2023-02-11T20:21:53.734Z,78.41
2023-02-11T20:24:22.806Z,78.43
2023-02-11T20:26:55.274Z,78.47
2023-02-11T20:29:23.952Z,78.05
2023-02-11T20:31:52.544Z,78.28
2023-02-11T20:34:21.913Z,78.38
2023-02-11T20:36:52.861Z,78.42
2023-02-11T20:39:23.056Z,78.42
2023-02-11T20:41:51.860Z,79.03
2023-02-11T20:44:22.493Z,78.83
2023-02-11T20:46:51.128Z,78.70
2023-02-11T20:49:22.316Z,79.28
2023-02-11T20:51:53.752Z,79.37
2023-02-11T20:54:23.471Z,79.02
2023-02-11T20:56:52.322Z,79.19
2023-02-11T20:59:21.149Z,78.98
2023-02-11T21:01:50.609Z,79.32
2023-02-11T21:04:20.619Z,79.13
2023-02-11T21:06:53.655Z,79.39
2023-02-11T21:09:24.618Z,80.08
2023-02-11T21:11:54.339Z,80.57
2023-02-11T21:14:26.752Z,80.03
2023-02-11T21:16:55.040Z,80.34
2023-02-11T21:19:23.236Z,80.10
2023-02-11T21:21:55.440Z,80.65
2023-02-11T21:24:23.804Z,80.53
2023-02-11T21:26:51.678Z,80.25
2023-02-11T21:29:19.698Z,80.91
2023-02-11T21:31:48.305Z,80.65
2023-02-11T21:34:16.332Z,80.73
2023-02-11T21:36:45.751Z,79.80
2023-02-11T21:39:15.244Z,80.34
2023-02-11T21:41:43.493Z,79.83
2023-02-11T21:44:11.928Z,79.91
2023-02-11T21:46:40.035Z,80.02
2023-02-11T21:49:08.080Z,79.91
2023-02-11T21:51:36.778Z,80.25
2023-02-11T21:54:05.037Z,80.53
2023-02-11T21:56:35.506Z,81.06
2023-02-11T21:59:03.835Z,80.11
2023-02-11T22:01:35.395Z,80.47
2023-02-11T22:04:04.219Z,80.98
2023-02-11T22:06:35.213Z,81.40
2023-02-11T22:09:05.074Z,81.37
2023-02-11T22:11:34.916Z,80.84
2023-02-11T22:14:03.269Z,81.32
2023-02-11T22:16:32.657Z,81.13
2023-02-11T22:19:02.380Z,81.49
2023-02-11T22:21:30.618Z,82.16
2023-02-11T22:24:00.853Z,81.48
2023-02-11T22:26:29.519Z,82.12
2023-02-11T22:28:58.935Z,81.83
2023-02-11T22:31:30.042Z,82.08
2023-02-11T22:33:59.230Z,82.39
2023-02-11T22:36:30.558Z,82.13
2023-02-11T22:39:02.336Z,82.33
2023-02-11T22:41:33.507Z,81.96
2023-02-11T22:44:02.816Z,82.25
2023-02-11T22:46:31.152Z,81.83
2023-02-11T22:48:59.122Z,82.43
2023-02-11T22:51:28.727Z,82.54
2023-02-11T22:53:58.458Z,82.29
2023-02-11T22:56:27.545Z,82.18
2023-02-11T22:58:58.312Z,82.22
2023-02-11T23:01:27.928Z,82.34
2023-02-11T23:03:56.035Z,82.20
2023-02-11T23:06:24.054Z,82.64
2023-02-11T23:08:52.675Z,82.90
2023-02-11T23:11:21.871Z,82.79
2023-02-11T23:13:52.412Z,82.87
2023-02-11T23:16:22.406Z,83.44
2023-02-11T23:18:52.980Z,83.12
2023-02-11T23:21:23.648Z,83.03
2023-02-11T23:23:57.280Z,83.03
2023-02-11T23:26:26.586Z,82.99
2023-02-11T23:28:55.016Z,83.14
2023-02-11T23:31:25.842Z,83.00
2023-02-11T23:33:55.671Z,82.72
2023-02-11T23:36:24.196Z,82.91
2023-02-11T23:38:55.519Z,82.70
2023-02-11T23:41:23.852Z,83.50
2023-02-11T23:43:52.821Z,83.56
2023-02-11T23:46:22.347Z,82.72
2023-02-11T23:48:51.127Z,83.49
2023-02-11T23:51:21.039Z,83.59
2023-02-11T23:53:50.414Z,83.65
2023-02-11T23:56:20.408Z,83.20
2023-02-11T23:58:49.788Z,82.92
